Seven Sins — ZCOD6 — position and weather

sailwx.info

Track history (hours):
 
Tides and Currents Weather Stations Pressure Air Temp Water Temp Dewpoint Dewpoint Depression Visibility Wind Speed Wind Dir Waves Ship Positions

Seven Sins

Last reported at 2017-Apr-10 10:36 UTC. Time now 2017-Apr-28 10:20 UTC.
Position N 44°06' E 009°52'.
Warning: this ship's position is 17 days out of date.

Length 43 m; draft 3.2 m.

Type: Pleasure craft. MMSI: 319425000.

Date/timePositionNaut miles runAvg speedWind from/ knotsBaromVisibWave heightAir tempDewpointWater temp
2017-Apr-10 10:36N 44°06' E 009°52'0 0.0
2017-Apr-10 10:27N 44°06' E 009°52'0 0.0
2017-Apr-10 10:00N 44°06' E 009°52'0 0.0
2017-Apr-10 09:30N 44°06' E 009°52'0 0.0
2017-Apr-10 08:57N 44°06' E 009°52'0 0.0
2017-Apr-10 08:30N 44°06' E 009°52'0 0.0
2017-Apr-10 08:00N 44°06' E 009°52'0 0.0
2017-Apr-10 07:30N 44°06' E 009°52'0 0.0
2017-Apr-10 06:57N 44°06' E 009°52'0 0.0
2017-Apr-10 06:30N 44°06' E 009°52'0 0.0
2017-Apr-10 06:00N 44°06' E 009°52'0 0.0
2017-Apr-10 05:27N 44°06' E 009°52'0 0.0
2017-Apr-10 04:57N 44°06' E 009°52'0 0.0
2017-Apr-10 04:30N 44°06' E 009°52'0 0.1
2017-Apr-10 04:00N 44°06' E 009°52'0 0.0
2017-Apr-10 03:30N 44°06' E 009°52'0 0.0
2017-Apr-10 03:00N 44°06' E 009°52'0 0.0
2017-Apr-10 02:30N 44°06' E 009°52'0 0.0
2017-Apr-10 02:00N 44°06' E 009°52'0 0.0
2017-Apr-10 01:30N 44°06' E 009°52'0 0.0
2017-Apr-10 01:00N 44°06' E 009°52'0 0.0
2017-Apr-10 00:30N 44°06' E 009°52'0 0.0
2017-Apr-10 00:00N 44°06' E 009°52'0 0.0
2017-Apr-09 23:30N 44°06' E 009°52'0 0.0
2017-Apr-09 23:00N 44°06' E 009°52'0 0.0
2017-Apr-09 22:27N 44°06' E 009°52'0 0.0
2017-Apr-09 21:59N 44°06' E 009°52'0 0.0
2017-Apr-09 21:30N 44°06' E 009°52'0 0.0
2017-Apr-09 21:00N 44°06' E 009°52'0 0.0
2017-Apr-09 20:29N 44°06' E 009°52'0 0.0
2017-Apr-09 20:00N 44°06' E 009°52'0 0.0
2017-Apr-09 19:30N 44°06' E 009°52'0 0.0
2017-Apr-09 19:00N 44°06' E 009°52'0 0.0
2017-Apr-09 18:27N 44°06' E 009°52'0 0.0
2017-Apr-09 18:00N 44°06' E 009°52'0 0.0
2017-Apr-09 17:27N 44°06' E 009°52'0 0.0
2017-Apr-09 17:00N 44°06' E 009°52'0 0.0
2017-Apr-09 16:30N 44°06' E 009°52'0 0.0
2017-Apr-09 16:00N 44°06' E 009°52'0 0.0
2017-Apr-09 15:30N 44°06' E 009°52'0 0.0
2017-Apr-09 14:59N 44°06' E 009°52'0 0.0
2017-Apr-09 14:00N 44°06' E 009°52'0 0.0
2017-Apr-09 13:29N 44°06' E 009°52'0 0.0
2017-Apr-09 13:00N 44°06' E 009°52'0 0.0
2017-Apr-09 12:29N 44°06' E 009°52'0 0.0
2017-Apr-09 11:59N 44°06' E 009°52'0 0.0
2017-Apr-09 11:30N 44°06' E 009°52'0 0.0
2017-Apr-09 11:00N 44°06' E 009°52'0 0.0
2017-Apr-09 10:24N 44°06' E 009°52'0 0.0
2017-Apr-09 10:00N 44°06' E 009°52'0 0.0
2017-Apr-09 09:29N 44°06' E 009°52'0 0.0
2017-Apr-09 08:59N 44°06' E 009°52'0 0.0
2017-Apr-09 08:26N 44°06' E 009°52'0 0.0
2017-Apr-09 08:00N 44°06' E 009°52'0 0.1
2017-Apr-09 07:30N 44°06' E 009°51'3 5.2
2017-Apr-09 07:00N 44°03' E 009°52'4 7.6
2017-Apr-09 06:30N 43°60' E 009°54'5 9.7
2017-Apr-09 06:00N 43°57' E 009°49'5 9.7
2017-Apr-09 05:30N 43°53' E 009°44'5 9.8
2017-Apr-09 05:00N 43°50' E 009°40'5 9.6
2017-Apr-09 04:30N 43°46' E 009°35'4 8.7
2017-Apr-09 04:00N 43°43' E 009°31'4 8.1
2017-Apr-09 03:29N 43°40' E 009°27'4 8.2
2017-Apr-09 03:00N 43°38' E 009°22'4 7.9
2017-Apr-09 02:30N 43°35' E 009°18'4 7.6
2017-Apr-09 02:00N 43°33' E 009°14'38 8.1
2017-Apr-08 21:22N 43°05' E 008°39'6 8.8
2017-Apr-08 20:43N 43°01' E 008°34'2 8.7
2017-Apr-08 20:29N 42°59' E 008°32'316 8.8
2017-Apr-07 08:38N 39°23' E 003°26'1 8.4
2017-Apr-07 08:30N 39°22' E 003°25'5 8.4
2017-Apr-07 07:55N 39°20' E 003°19'3 8.5
2017-Apr-07 07:30N 39°18' E 003°15'4 8.4
2017-Apr-07 07:00N 39°16' E 003°11'4 8.7
2017-Apr-07 06:30N 39°15' E 003°05'4 8.9
2017-Apr-07 06:00N 39°15' E 002°60'5 9.0
2017-Apr-07 05:30N 39°16' E 002°54'5 9.0
2017-Apr-07 05:00N 39°18' E 002°49'4 8.7
2017-Apr-07 04:30N 39°20' E 002°44'4 8.7
2017-Apr-07 04:00N 39°24' E 002°41'4 8.8
2017-Apr-07 03:30N 39°27' E 002°38'5 9.2
2017-Apr-07 03:00N 39°31' E 002°34'0 0.5
2017-Apr-07 02:29N 39°31' E 002°34'0 0.0
2017-Apr-07 01:55N 39°31' E 002°34'0 0.0
2017-Apr-07 01:26N 39°31' E 002°34'0 0.0
2017-Apr-07 00:59N 39°31' E 002°34'0 0.0
2017-Apr-07 00:26N 39°31' E 002°34'0 0.0
2017-Apr-06 23:59N 39°31' E 002°34'0 0.0
2017-Apr-06 23:29N 39°31' E 002°34'0 0.0
2017-Apr-06 22:59N 39°31' E 002°34'0 0.0
2017-Apr-06 22:29N 39°31' E 002°34'0 0.0
2017-Apr-06 21:59N 39°31' E 002°34'0 0.0
2017-Apr-06 21:29N 39°31' E 002°34'0 0.0
2017-Apr-06 20:59N 39°31' E 002°34'0 0.0
2017-Apr-06 20:28N 39°31' E 002°34'0 0.0
2017-Apr-06 19:59N 39°31' E 002°34'0 0.0
2017-Apr-06 19:28N 39°31' E 002°34'0 0.0
2017-Apr-06 18:59N 39°31' E 002°34'0 0.0
2017-Apr-06 18:29N 39°31' E 002°34'0 0.0
2017-Apr-06 17:59N 39°31' E 002°34'0 0.0
2017-Apr-06 17:28N 39°31' E 002°34'0 0.0
2017-Apr-06 16:59N 39°31' E 002°34'0 0.0
2017-Apr-06 16:29N 39°31' E 002°34'0 0.0
2017-Apr-06 15:56N 39°31' E 002°34'0 0.0
2017-Apr-06 15:28N 39°31' E 002°34'0 0.0
2017-Apr-06 14:58N 39°31' E 002°34'0 0.0
2017-Apr-06 14:28N 39°31' E 002°34'0 0.0
2017-Apr-06 13:28N 39°31' E 002°34'0 0.0
2017-Apr-06 12:47N 39°31' E 002°34'0 0.1
2017-Apr-06 12:29N 39°31' E 002°34'0 0.0
2017-Apr-06 11:59N 39°31' E 002°34'0 0.0
2017-Apr-06 11:28N 39°31' E 002°34'0 0.0
2017-Apr-06 10:58N 39°31' E 002°34'0 0.0
2017-Apr-06 10:28N 39°31' E 002°34'0 0.0
2017-Apr-06 09:56N 39°31' E 002°34'0 0.0
2017-Apr-06 09:25N 39°31' E 002°34'0 0.0
2017-Apr-06 08:59N 39°31' E 002°34'0 0.0
2017-Apr-06 08:29N 39°31' E 002°34'0 0.0
2017-Apr-06 07:55N 39°31' E 002°34'0 0.0
2017-Apr-06 07:26N 39°31' E 002°34'0 0.0
2017-Apr-06 06:55N 39°31' E 002°34'0 0.0
2017-Apr-06 06:25N 39°31' E 002°34'0 0.0
2017-Apr-06 05:58N 39°31' E 002°34'0 0.0
2017-Apr-06 05:28N 39°31' E 002°34'0 0.0
2017-Apr-06 04:58N 39°31' E 002°34'0 0.0
2017-Apr-06 04:28N 39°31' E 002°34'0 0.0
2017-Apr-06 03:55N 39°31' E 002°34'0 0.0
2017-Apr-06 03:28N 39°31' E 002°34'0 0.0
2017-Apr-06 02:58N 39°31' E 002°34'0 0.0
2017-Apr-06 02:29N 39°31' E 002°34'0 0.0
2017-Apr-06 01:58N 39°31' E 002°34'0 0.0
2017-Apr-06 01:28N 39°31' E 002°34'0 0.0
2017-Apr-06 00:58N 39°31' E 002°34'0 0.0
2017-Apr-06 00:28N 39°31' E 002°34'0 0.0
2017-Apr-05 23:58N 39°31' E 002°34'0 0.1
2017-Apr-05 23:28N 39°32' E 002°34'0 0.0
2017-Apr-05 22:55N 39°32' E 002°34'0 0.1
2017-Apr-05 22:28N 39°31' E 002°34'0 0.0
2017-Apr-05 21:55N 39°31' E 002°34'0 0.0
2017-Apr-05 21:25N 39°31' E 002°34'0 0.0
2017-Apr-05 20:55N 39°31' E 002°34'0 0.0
2017-Apr-05 20:28N 39°31' E 002°34'0 0.0
2017-Apr-05 19:58N 39°32' E 002°34'0 0.0
2017-Apr-05 19:25N 39°32' E 002°34'0 0.0
2017-Apr-05 18:55N 39°32' E 002°34'0 0.0
2017-Apr-05 18:28N 39°32' E 002°34'0 0.0
2017-Apr-05 17:58N 39°32' E 002°34'0 0.0
2017-Apr-05 17:28N 39°32' E 002°34'0 0.0
2017-Apr-05 16:58N 39°32' E 002°34'0 0.0
2017-Apr-05 16:28N 39°32' E 002°34'0 0.0
2017-Apr-05 15:58N 39°32' E 002°34'0 0.0
2017-Apr-05 15:28N 39°32' E 002°34'0 0.0
2017-Apr-05 14:58N 39°32' E 002°34'0 0.0
2017-Apr-05 13:58N 39°32' E 002°34'0 0.0
2017-Apr-05 13:28N 39°32' E 002°34'0 0.0
2017-Apr-05 12:55N 39°32' E 002°34'0 0.0
2017-Apr-05 12:28N 39°32' E 002°34'0 0.0
2017-Apr-05 11:55N 39°32' E 002°34'0 0.0
2017-Apr-05 11:28N 39°32' E 002°34'0 0.0
2017-Apr-05 10:58N 39°32' E 002°34'0 0.0
2017-Apr-05 10:28N 39°32' E 002°34'0 0.0
2017-Apr-05 09:52N 39°32' E 002°34'0 0.0
2017-Apr-05 09:25N 39°32' E 002°34'0 0.0
2017-Apr-05 08:58N 39°32' E 002°34'0 0.0
2017-Apr-05 08:28N 39°32' E 002°34'0 0.0
2017-Apr-05 07:58N 39°32' E 002°34'0 0.0
2017-Apr-05 07:28N 39°32' E 002°34'0 0.0
2017-Apr-05 06:58N 39°32' E 002°34'0 0.0
2017-Apr-05 06:28N 39°32' E 002°34'0 0.0
2017-Apr-05 05:58N 39°32' E 002°34'0 0.0
2017-Apr-05 05:25N 39°32' E 002°34'0 0.0
2017-Apr-05 04:58N 39°32' E 002°34'0 0.0
2017-Apr-05 04:28N 39°32' E 002°34'0 0.0
2017-Apr-05 03:58N 39°32' E 002°34'0 0.0
2017-Apr-05 03:25N 39°32' E 002°34'0 0.0
2017-Apr-05 02:58N 39°32' E 002°34'0 0.0
2017-Apr-05 02:28N 39°32' E 002°34'0 0.0
2017-Apr-05 01:58N 39°31' E 002°34'0 0.1
2017-Apr-05 01:30N 39°32' E 002°34'4 7.1
2017-Apr-05 01:00N 39°28' E 002°34'5 9.3
2017-Apr-05 00:30N 39°23' E 002°34'5 9.2
2017-Apr-05 00:00N 39°19' E 002°32'5 9.4
2017-Apr-04 23:30N 39°15' E 002°29'7 9.4
2017-Apr-04 22:45N 39°09' E 002°25'3 9.4
2017-Apr-04 22:26N 39°06' E 002°23'151 9.2
2017-Apr-04 06:05N 37°26' W 000°01'1 8.4
2017-Apr-04 05:59N 37°26' W 000°02'4 8.3
2017-Apr-04 05:30N 37°24' W 000°07'4 8.8
2017-Apr-04 05:00N 37°21' W 000°11'255 9.3
2017-Apr-03 01:33N 36°02' W 005°13'113.8
2017-Apr-03 01:30N 36°02' W 005°14'712.5
2017-Apr-03 00:58N 36°05' W 005°21'7 1.4
2017-Apr-02 20:07N 35°59' W 005°25'  
Track history (hours):
 
Tides and Currents Weather Stations Pressure Air Temp Water Temp Dewpoint Dewpoint Depression Visibility Wind Speed Wind Dir Waves Ship Positions

Seven Sins

Last reported at 2017-Apr-10 10:36 UTC. Time now 2017-Apr-28 10:20 UTC.
Position N 44°06' E 009°52'.
Warning: this ship's position is 17 days out of date.

Length 43 m; draft 3.2 m.

Type: Pleasure craft. MMSI: 319425000.

Date/timePositionNaut miles runAvg speedWind from/ knotsBaromVisibWave heightAir tempDewpointWater temp
2017-Apr-10 10:36N 44°06' E 009°52'0 0.0
2017-Apr-10 10:27N 44°06' E 009°52'0 0.0
2017-Apr-10 10:00N 44°06' E 009°52'0 0.0
2017-Apr-10 09:30N 44°06' E 009°52'0 0.0
2017-Apr-10 08:57N 44°06' E 009°52'0 0.0
2017-Apr-10 08:30N 44°06' E 009°52'0 0.0
2017-Apr-10 08:00N 44°06' E 009°52'0 0.0
2017-Apr-10 07:30N 44°06' E 009°52'0 0.0
2017-Apr-10 06:57N 44°06' E 009°52'0 0.0
2017-Apr-10 06:30N 44°06' E 009°52'0 0.0
2017-Apr-10 06:00N 44°06' E 009°52'0 0.0
2017-Apr-10 05:27N 44°06' E 009°52'0 0.0
2017-Apr-10 04:57N 44°06' E 009°52'0 0.0
2017-Apr-10 04:30N 44°06' E 009°52'0 0.1
2017-Apr-10 04:00N 44°06' E 009°52'0 0.0
2017-Apr-10 03:30N 44°06' E 009°52'0 0.0
2017-Apr-10 03:00N 44°06' E 009°52'0 0.0
2017-Apr-10 02:30N 44°06' E 009°52'0 0.0
2017-Apr-10 02:00N 44°06' E 009°52'0 0.0
2017-Apr-10 01:30N 44°06' E 009°52'0 0.0
2017-Apr-10 01:00N 44°06' E 009°52'0 0.0
2017-Apr-10 00:30N 44°06' E 009°52'0 0.0
2017-Apr-10 00:00N 44°06' E 009°52'0 0.0
2017-Apr-09 23:30N 44°06' E 009°52'0 0.0
2017-Apr-09 23:00N 44°06' E 009°52'0 0.0
2017-Apr-09 22:27N 44°06' E 009°52'0 0.0
2017-Apr-09 21:59N 44°06' E 009°52'0 0.0
2017-Apr-09 21:30N 44°06' E 009°52'0 0.0
2017-Apr-09 21:00N 44°06' E 009°52'0 0.0
2017-Apr-09 20:29N 44°06' E 009°52'0 0.0
2017-Apr-09 20:00N 44°06' E 009°52'0 0.0
2017-Apr-09 19:30N 44°06' E 009°52'0 0.0
2017-Apr-09 19:00N 44°06' E 009°52'0 0.0
2017-Apr-09 18:27N 44°06' E 009°52'0 0.0
2017-Apr-09 18:00N 44°06' E 009°52'0 0.0
2017-Apr-09 17:27N 44°06' E 009°52'0 0.0
2017-Apr-09 17:00N 44°06' E 009°52'0 0.0
2017-Apr-09 16:30N 44°06' E 009°52'0 0.0
2017-Apr-09 16:00N 44°06' E 009°52'0 0.0
2017-Apr-09 15:30N 44°06' E 009°52'0 0.0
2017-Apr-09 14:59N 44°06' E 009°52'0 0.0
2017-Apr-09 14:00N 44°06' E 009°52'0 0.0
2017-Apr-09 13:29N 44°06' E 009°52'0 0.0
2017-Apr-09 13:00N 44°06' E 009°52'0 0.0
2017-Apr-09 12:29N 44°06' E 009°52'0 0.0
2017-Apr-09 11:59N 44°06' E 009°52'0 0.0
2017-Apr-09 11:30N 44°06' E 009°52'0 0.0
2017-Apr-09 11:00N 44°06' E 009°52'0 0.0
2017-Apr-09 10:24N 44°06' E 009°52'0 0.0
2017-Apr-09 10:00N 44°06' E 009°52'0 0.0
2017-Apr-09 09:29N 44°06' E 009°52'0 0.0
2017-Apr-09 08:59N 44°06' E 009°52'0 0.0
2017-Apr-09 08:26N 44°06' E 009°52'0 0.0
2017-Apr-09 08:00N 44°06' E 009°52'0 0.1
2017-Apr-09 07:30N 44°06' E 009°51'3 5.2
2017-Apr-09 07:00N 44°03' E 009°52'4 7.6
2017-Apr-09 06:30N 43°60' E 009°54'5 9.7
2017-Apr-09 06:00N 43°57' E 009°49'5 9.7
2017-Apr-09 05:30N 43°53' E 009°44'5 9.8
2017-Apr-09 05:00N 43°50' E 009°40'5 9.6
2017-Apr-09 04:30N 43°46' E 009°35'4 8.7
2017-Apr-09 04:00N 43°43' E 009°31'4 8.1
2017-Apr-09 03:29N 43°40' E 009°27'4 8.2
2017-Apr-09 03:00N 43°38' E 009°22'4 7.9
2017-Apr-09 02:30N 43°35' E 009°18'4 7.6
2017-Apr-09 02:00N 43°33' E 009°14'38 8.1
2017-Apr-08 21:22N 43°05' E 008°39'6 8.8
2017-Apr-08 20:43N 43°01' E 008°34'2 8.7
2017-Apr-08 20:29N 42°59' E 008°32'316 8.8
2017-Apr-07 08:38N 39°23' E 003°26'1 8.4
2017-Apr-07 08:30N 39°22' E 003°25'5 8.4
2017-Apr-07 07:55N 39°20' E 003°19'3 8.5
2017-Apr-07 07:30N 39°18' E 003°15'4 8.4
2017-Apr-07 07:00N 39°16' E 003°11'4 8.7
2017-Apr-07 06:30N 39°15' E 003°05'4 8.9
2017-Apr-07 06:00N 39°15' E 002°60'5 9.0
2017-Apr-07 05:30N 39°16' E 002°54'5 9.0
2017-Apr-07 05:00N 39°18' E 002°49'4 8.7
2017-Apr-07 04:30N 39°20' E 002°44'4 8.7
2017-Apr-07 04:00N 39°24' E 002°41'4 8.8
2017-Apr-07 03:30N 39°27' E 002°38'5 9.2
2017-Apr-07 03:00N 39°31' E 002°34'0 0.5
2017-Apr-07 02:29N 39°31' E 002°34'0 0.0
2017-Apr-07 01:55N 39°31' E 002°34'0 0.0
2017-Apr-07 01:26N 39°31' E 002°34'0 0.0
2017-Apr-07 00:59N 39°31' E 002°34'0 0.0
2017-Apr-07 00:26N 39°31' E 002°34'0 0.0
2017-Apr-06 23:59N 39°31' E 002°34'0 0.0
2017-Apr-06 23:29N 39°31' E 002°34'0 0.0
2017-Apr-06 22:59N 39°31' E 002°34'0 0.0
2017-Apr-06 22:29N 39°31' E 002°34'0 0.0
2017-Apr-06 21:59N 39°31' E 002°34'0 0.0
2017-Apr-06 21:29N 39°31' E 002°34'0 0.0
2017-Apr-06 20:59N 39°31' E 002°34'0 0.0
2017-Apr-06 20:28N 39°31' E 002°34'0 0.0
2017-Apr-06 19:59N 39°31' E 002°34'0 0.0
2017-Apr-06 19:28N 39°31' E 002°34'0 0.0
2017-Apr-06 18:59N 39°31' E 002°34'0 0.0
2017-Apr-06 18:29N 39°31' E 002°34'0 0.0
2017-Apr-06 17:59N 39°31' E 002°34'0 0.0
2017-Apr-06 17:28N 39°31' E 002°34'0 0.0
2017-Apr-06 16:59N 39°31' E 002°34'0 0.0
2017-Apr-06 16:29N 39°31' E 002°34'0 0.0
2017-Apr-06 15:56N 39°31' E 002°34'0 0.0
2017-Apr-06 15:28N 39°31' E 002°34'0 0.0
2017-Apr-06 14:58N 39°31' E 002°34'0 0.0
2017-Apr-06 14:28N 39°31' E 002°34'0 0.0
2017-Apr-06 13:28N 39°31' E 002°34'0 0.0
2017-Apr-06 12:47N 39°31' E 002°34'0 0.1
2017-Apr-06 12:29N 39°31' E 002°34'0 0.0
2017-Apr-06 11:59N 39°31' E 002°34'0 0.0
2017-Apr-06 11:28N 39°31' E 002°34'0 0.0
2017-Apr-06 10:58N 39°31' E 002°34'0 0.0
2017-Apr-06 10:28N 39°31' E 002°34'0 0.0
2017-Apr-06 09:56N 39°31' E 002°34'0 0.0
2017-Apr-06 09:25N 39°31' E 002°34'0 0.0
2017-Apr-06 08:59N 39°31' E 002°34'0 0.0
2017-Apr-06 08:29N 39°31' E 002°34'0 0.0
2017-Apr-06 07:55N 39°31' E 002°34'0 0.0
2017-Apr-06 07:26N 39°31' E 002°34'0 0.0
2017-Apr-06 06:55N 39°31' E 002°34'0 0.0
2017-Apr-06 06:25N 39°31' E 002°34'0 0.0
2017-Apr-06 05:58N 39°31' E 002°34'0 0.0
2017-Apr-06 05:28N 39°31' E 002°34'0 0.0
2017-Apr-06 04:58N 39°31' E 002°34'0 0.0
2017-Apr-06 04:28N 39°31' E 002°34'0 0.0
2017-Apr-06 03:55N 39°31' E 002°34'0 0.0
2017-Apr-06 03:28N 39°31' E 002°34'0 0.0
2017-Apr-06 02:58N 39°31' E 002°34'0 0.0
2017-Apr-06 02:29N 39°31' E 002°34'0 0.0
2017-Apr-06 01:58N 39°31' E 002°34'0 0.0
2017-Apr-06 01:28N 39°31' E 002°34'0 0.0
2017-Apr-06 00:58N 39°31' E 002°34'0 0.0
2017-Apr-06 00:28N 39°31' E 002°34'0 0.0
2017-Apr-05 23:58N 39°31' E 002°34'0 0.1
2017-Apr-05 23:28N 39°32' E 002°34'0 0.0
2017-Apr-05 22:55N 39°32' E 002°34'0 0.1
2017-Apr-05 22:28N 39°31' E 002°34'0 0.0
2017-Apr-05 21:55N 39°31' E 002°34'0 0.0
2017-Apr-05 21:25N 39°31' E 002°34'0 0.0
2017-Apr-05 20:55N 39°31' E 002°34'0 0.0
2017-Apr-05 20:28N 39°31' E 002°34'0 0.0
2017-Apr-05 19:58N 39°32' E 002°34'0 0.0
2017-Apr-05 19:25N 39°32' E 002°34'0 0.0
2017-Apr-05 18:55N 39°32' E 002°34'0 0.0
2017-Apr-05 18:28N 39°32' E 002°34'0 0.0
2017-Apr-05 17:58N 39°32' E 002°34'0 0.0
2017-Apr-05 17:28N 39°32' E 002°34'0 0.0
2017-Apr-05 16:58N 39°32' E 002°34'0 0.0
2017-Apr-05 16:28N 39°32' E 002°34'0 0.0
2017-Apr-05 15:58N 39°32' E 002°34'0 0.0
2017-Apr-05 15:28N 39°32' E 002°34'0 0.0
2017-Apr-05 14:58N 39°32' E 002°34'0 0.0
2017-Apr-05 13:58N 39°32' E 002°34'0 0.0
2017-Apr-05 13:28N 39°32' E 002°34'0 0.0
2017-Apr-05 12:55N 39°32' E 002°34'0 0.0
2017-Apr-05 12:28N 39°32' E 002°34'0 0.0
2017-Apr-05 11:55N 39°32' E 002°34'0 0.0
2017-Apr-05 11:28N 39°32' E 002°34'0 0.0
2017-Apr-05 10:58N 39°32' E 002°34'0 0.0
2017-Apr-05 10:28N 39°32' E 002°34'0 0.0
2017-Apr-05 09:52N 39°32' E 002°34'0 0.0
2017-Apr-05 09:25N 39°32' E 002°34'0 0.0
2017-Apr-05 08:58N 39°32' E 002°34'0 0.0
2017-Apr-05 08:28N 39°32' E 002°34'0 0.0
2017-Apr-05 07:58N 39°32' E 002°34'0 0.0
2017-Apr-05 07:28N 39°32' E 002°34'0 0.0
2017-Apr-05 06:58N 39°32' E 002°34'0 0.0
2017-Apr-05 06:28N 39°32' E 002°34'0 0.0
2017-Apr-05 05:58N 39°32' E 002°34'0 0.0
2017-Apr-05 05:25N 39°32' E 002°34'0 0.0
2017-Apr-05 04:58N 39°32' E 002°34'0 0.0
2017-Apr-05 04:28N 39°32' E 002°34'0 0.0
2017-Apr-05 03:58N 39°32' E 002°34'0 0.0
2017-Apr-05 03:25N 39°32' E 002°34'0 0.0
2017-Apr-05 02:58N 39°32' E 002°34'0 0.0
2017-Apr-05 02:28N 39°32' E 002°34'0 0.0
2017-Apr-05 01:58N 39°31' E 002°34'0 0.1
2017-Apr-05 01:30N 39°32' E 002°34'4 7.1
2017-Apr-05 01:00N 39°28' E 002°34'5 9.3
2017-Apr-05 00:30N 39°23' E 002°34'5 9.2
2017-Apr-05 00:00N 39°19' E 002°32'5 9.4
2017-Apr-04 23:30N 39°15' E 002°29'7 9.4
2017-Apr-04 22:45N 39°09' E 002°25'3 9.4
2017-Apr-04 22:26N 39°06' E 002°23'151 9.2
2017-Apr-04 06:05N 37°26' W 000°01'1 8.4
2017-Apr-04 05:59N 37°26' W 000°02'4 8.3
2017-Apr-04 05:30N 37°24' W 000°07'4 8.8
2017-Apr-04 05:00N 37°21' W 000°11'255 9.3
2017-Apr-03 01:33N 36°02' W 005°13'113.8
2017-Apr-03 01:30N 36°02' W 005°14'712.5
2017-Apr-03 00:58N 36°05' W 005°21'7 1.4
2017-Apr-02 20:07N 35°59' W 005°25'  

Dump ship's entire track history